Cheswold, Delaware
Current Conditions -  °F | °C
As of 10:58 PM on Tuesday 25 Nov 2014 (Local Time) from KDOV Reporting Station
Clear Clear  
Wind Chill: 46°   Ceiling: Unl
Heat Index: 46°   Visibility: 10mi
Dew Point: 39°   Wind: 2mph
Humidity: 76%   Direction: 20°NNE
Pressure: 30.13"   Gusts: NA
Location:  39.22°N, 75.59°W
Report Text: KDOV 260358Z AUTO 02002KT 10SM CLR 08/04 A3013 RMK AO2 SLP206 T00800040
Loading
Personal Weather Stations






























Interactive Weather Map New forecast layout! Learn more

10-Day Weather Forecast

Advertisements
Track Severe Weather on mobile